Time;durP1;ratioP1;P1;durP2;ratioP2;P2;SDS_P1;SDS_P2;PMS_P1;PMS_P2;Temp;Humidity;BMP_temperature;BMP_pressure;BME280_temperature;BME280_humidity;BME280_pressure;Samples;Min_cycle;Max_cycle;Signal;HPM_P1;HPM_P2
2023/08/27 00:00:51;;;;;;;7.13;2.70;;;;;;;15.53;100.00;149979.97;4998793;28;20615;-62
2023/08/27 00:03:17;;;;;;;8.53;2.70;;;;;;;15.56;100.00;149987.47;4994673;28;20249;-62
2023/08/27 00:05:46;;;;;;;4.70;2.57;;;;;;;15.59;100.00;149994.97;4997133;28;20242;-62
2023/08/27 00:08:13;;;;;;;5.80;2.90;;;;;;;15.55;100.00;149983.75;4997297;28;20234;-62
2023/08/27 00:10:40;;;;;;;8.10;2.93;;;;;;;15.49;100.00;149969.97;4993801;28;20235;-62
2023/08/27 00:13:06;;;;;;;4.60;2.33;;;;;;;15.47;100.00;149964.97;4992519;28;20242;-62
2023/08/27 00:15:33;;;;;;;4.77;2.40;;;;;;;15.46;100.00;149962.47;4994541;28;20233;-62
2023/08/27 00:17:59;;;;;;;6.20;2.90;;;;;;;15.48;100.00;149968.75;5000253;28;20716;-62
2023/08/27 00:20:26;;;;;;;6.90;2.50;;;;;;;15.55;100.00;149983.75;4992391;28;20229;-62
2023/08/27 00:22:54;;;;;;;6.53;2.77;;;;;;;15.59;100.00;149994.97;4995547;28;20239;-62
2023/08/27 00:25:21;;;;;;;5.93;2.47;;;;;;;15.60;100.00;149996.25;4996346;28;20245;-62
2023/08/27 00:27:47;;;;;;;6.13;2.50;;;;;;;15.63;100.00;150004.97;4996506;28;20242;-62
2023/08/27 00:30:14;;;;;;;12.83;3.03;;;;;;;15.60;100.00;149996.25;5002234;28;20241;-62
2023/08/27 00:32:41;;;;;;;8.47;2.60;;;;;;;15.59;100.00;149994.97;4993394;28;20237;-62
2023/08/27 00:35:09;;;;;;;5.40;2.67;;;;;;;15.59;100.00;149993.75;4994784;28;20323;-62
2023/08/27 00:37:36;;;;;;;7.77;2.63;;;;;;;15.56;100.00;149986.25;4998898;28;20233;-62
2023/08/27 00:40:06;;;;;;;9.60;2.53;;;;;;;15.61;100.00;149998.75;4997741;28;20607;-62
2023/08/27 00:42:35;;;;;;;4.70;2.77;;;;;;;15.58;100.00;149992.47;4991449;28;20635;-62
2023/08/27 00:45:03;;;;;;;6.33;2.80;;;;;;;15.57;100.00;149988.75;5001298;28;20220;-62
2023/08/27 00:47:30;;;;;;;4.13;2.40;;;;;;;15.57;100.00;149988.75;4998582;28;20275;-62
2023/08/27 00:49:57;;;;;;;5.90;2.40;;;;;;;15.54;100.00;149982.47;5010579;28;20238;-62
2023/08/27 00:52:24;;;;;;;8.17;2.60;;;;;;;15.53;100.00;149978.75;4992263;28;20621;-62
2023/08/27 00:54:52;;;;;;;7.10;2.43;;;;;;;15.52;100.00;149976.25;4996688;28;20230;-62
2023/08/27 00:57:21;;;;;;;7.57;2.70;;;;;;;15.52;100.00;149976.25;5009156;28;20675;-63
2023/08/27 00:59:48;;;;;;;4.87;2.40;;;;;;;15.54;100.00;149981.25;4993406;28;21090;-63
2023/08/27 01:02:16;;;;;;;6.00;2.60;;;;;;;15.61;100.00;149998.75;4994484;28;20234;-62
2023/08/27 01:04:42;;;;;;;8.63;3.27;;;;;;;15.55;100.00;149984.97;4993136;28;20231;-62
2023/08/27 01:07:16;;;;;;;5.77;2.80;;;;;;;15.54;100.00;149981.25;4995794;28;20239;-62
2023/08/27 01:09:50;;;;;;;8.90;2.40;;;;;;;15.58;100.00;149992.47;5006886;28;20290;-62
2023/08/27 01:12:25;;;;;;;11.17;3.10;;;;;;;15.55;100.00;149983.75;5000019;28;20358;-62
2023/08/27 01:14:53;;;;;;;4.73;2.80;;;;;;;15.51;100.00;149974.97;4993422;28;20258;-62
2023/08/27 01:17:22;;;;;;;9.00;3.10;;;;;;;15.50;100.00;149973.75;4990969;28;20238;-62
2023/08/27 01:19:49;;;;;;;8.53;2.67;;;;;;;15.55;100.00;149984.97;5000687;28;20235;-62
2023/08/27 01:22:17;;;;;;;9.73;2.70;;;;;;;15.48;100.00;149968.75;4994522;28;20265;-63
2023/08/27 01:24:44;;;;;;;7.33;2.60;;;;;;;15.48;100.00;149967.47;4993591;28;20225;-62
2023/08/27 01:27:22;;;;;;;6.97;2.73;;;;;;;15.45;100.00;149961.25;5011383;28;20236;-62
2023/08/27 01:29:57;;;;;;;5.30;2.40;;;;;;;15.46;100.00;149963.75;4994572;28;20246;-62
2023/08/27 01:32:31;;;;;;;7.87;2.77;;;;;;;15.44;100.00;149957.47;5001694;28;20613;-62
2023/08/27 01:35:00;;;;;;;9.50;2.90;;;;;;;15.43;100.00;149956.25;5011546;28;20235;-62
2023/08/27 01:37:28;;;;;;;4.70;2.30;;;;;;;15.45;100.00;149961.25;4999264;28;20226;-62
2023/08/27 01:40:00;;;;;;;8.07;2.73;;;;;;;15.49;100.00;149969.97;5002240;28;20592;-62
2023/08/27 01:42:28;;;;;;;9.83;2.90;;;;;;;15.49;100.00;149969.97;5002584;28;20238;-62
2023/08/27 01:44:56;;;;;;;11.07;2.90;;;;;;;15.44;100.00;149957.47;5004945;28;20239;-62
2023/08/27 01:47:24;;;;;;;6.73;3.10;;;;;;;15.42;100.00;149953.75;4999014;28;20243;-63
2023/08/27 01:49:51;;;;;;;6.80;2.50;;;;;;;15.42;100.00;149952.50;5014914;28;20389;-62
2023/08/27 01:52:17;;;;;;;6.70;3.20;;;;;;;15.39;100.00;149945.00;4995086;28;20230;-62
2023/08/27 01:54:46;;;;;;;4.13;2.40;;;;;;;15.40;100.00;149948.75;5001462;28;20226;-63
2023/08/27 01:57:11;;;;;;;4.33;2.63;;;;;;;15.41;100.00;149950.00;5004847;28;20406;-62
2023/08/27 01:59:38;;;;;;;5.70;2.80;;;;;;;15.46;100.00;149962.47;4994947;28;20711;-62
2023/08/27 02:02:05;;;;;;;6.97;2.93;;;;;;;15.52;100.00;149977.47;4994605;28;20305;-62
2023/08/27 02:04:31;;;;;;;13.63;4.27;;;;;;;15.61;100.00;149998.75;4993069;28;20581;-62
2023/08/27 02:07:00;;;;;;;10.53;3.60;;;;;;;15.60;100.00;149996.25;4995903;28;20235;-62
2023/08/27 02:09:27;;;;;;;9.03;2.97;;;;;;;15.56;100.00;149986.25;5018319;28;20229;-62
2023/08/27 02:11:55;;;;;;;9.73;2.80;;;;;;;15.54;100.00;149981.25;4995931;28;20242;-62
2023/08/27 02:14:21;;;;;;;4.73;2.97;;;;;;;15.55;100.00;149983.75;5002432;28;20722;-62
2023/08/27 02:16:48;;;;;;;7.87;2.97;;;;;;;15.57;100.00;149988.75;5012475;28;20226;-63
2023/08/27 02:19:15;;;;;;;5.97;2.50;;;;;;;15.51;100.00;149974.97;5003842;28;20235;-63
2023/08/27 02:21:41;;;;;;;7.70;2.90;;;;;;;15.50;100.00;149972.47;5009797;28;20597;-62
2023/08/27 02:24:08;;;;;;;9.83;3.13;;;;;;;15.53;100.00;149979.97;4997038;28;20238;-62
2023/08/27 02:26:35;;;;;;;7.47;2.63;;;;;;;15.57;100.00;149989.97;4991460;28;20229;-62
2023/08/27 02:29:03;;;;;;;5.47;3.00;;;;;;;15.49;100.00;149971.25;4996495;28;20222;-62
2023/08/27 02:31:31;;;;;;;4.93;2.53;;;;;;;15.47;100.00;149964.97;4999332;28;20233;-62
2023/08/27 02:33:58;;;;;;;8.47;2.97;;;;;;;15.47;100.00;149966.25;5000351;28;20238;-62
2023/08/27 02:36:28;;;;;;;6.50;2.90;;;;;;;15.48;100.00;149967.47;4996455;28;20233;-62
2023/08/27 02:38:55;;;;;;;7.73;3.20;;;;;;;15.48;100.00;149968.75;4995461;28;20237;-62
2023/08/27 02:41:21;;;;;;;10.50;3.33;;;;;;;15.47;100.00;149964.97;4994859;28;20239;-62
2023/08/27 02:43:48;;;;;;;12.30;3.17;;;;;;;15.46;100.00;149963.75;5006684;28;20730;-63
2023/08/27 02:46:16;;;;;;;7.73;2.80;;;;;;;15.46;100.00;149963.75;4998124;28;20235;-62
2023/08/27 02:48:43;;;;;;;6.27;2.73;;;;;;;15.52;100.00;149977.47;5017164;28;20241;-62
2023/08/27 02:51:09;;;;;;;8.93;3.20;;;;;;;15.56;100.00;149986.25;4997741;28;20227;-62
2023/08/27 02:53:36;;;;;;;7.90;2.77;;;;;;;15.47;100.00;149966.25;4998690;28;20255;-62
2023/08/27 02:56:03;;;;;;;13.33;3.13;;;;;;;15.43;100.00;149956.25;4995634;28;20471;-62
2023/08/27 02:58:30;;;;;;;5.57;2.90;;;;;;;15.43;100.00;149956.25;4994431;28;20280;-62
2023/08/27 03:00:57;;;;;;;7.60;3.30;;;;;;;15.45;100.00;149961.25;4995643;28;20231;-62
2023/08/27 03:03:25;;;;;;;6.20;2.90;;;;;;;15.49;100.00;149971.25;4986314;28;20305;-63
2023/08/27 03:05:52;;;;;;;5.33;2.97;;;;;;;15.53;100.00;149978.75;5002559;28;20289;-62
2023/08/27 03:08:18;;;;;;;7.03;3.10;;;;;;;15.51;100.00;149974.97;4992804;28;20228;-61
2023/08/27 03:10:45;;;;;;;4.93;2.83;;;;;;;15.53;100.00;149979.97;4997570;28;20225;-61
2023/08/27 03:13:11;;;;;;;6.27;2.80;;;;;;;15.54;100.00;149982.47;5001875;28;20642;-62
2023/08/27 03:15:38;;;;;;;7.50;2.80;;;;;;;15.55;100.00;149984.97;4994937;28;20613;-62
2023/08/27 03:18:06;;;;;;;7.87;2.70;;;;;;;15.60;100.00;149996.25;4997695;28;20409;-62
2023/08/27 03:20:34;;;;;;;9.50;3.37;;;;;;;15.57;100.00;149989.97;4995103;28;20234;-62
2023/08/27 03:23:00;;;;;;;8.83;2.97;;;;;;;15.56;100.00;149987.47;5001797;28;20238;-62
2023/08/27 03:25:27;;;;;;;6.40;2.87;;;;;;;15.56;100.00;149987.47;4993297;28;20230;-62
2023/08/27 03:27:53;;;;;;;6.93;3.07;;;;;;;15.59;100.00;149994.97;4994734;28;20735;-62
2023/08/27 03:33:02;;;;;;;5.50;2.63;;;;;;;15.62;100.00;150002.47;5051127;22;20235;-60
2023/08/27 03:35:30;;;;;;;12.30;3.07;;;;;;;15.59;100.00;149994.97;4996453;28;20304;-59
2023/08/27 03:37:58;;;;;;;6.30;3.00;;;;;;;15.58;100.00;149991.25;4997464;28;20228;-60
2023/08/27 03:40:25;;;;;;;6.53;2.83;;;;;;;15.56;100.00;149987.47;5008899;28;20648;-59
2023/08/27 03:42:53;;;;;;;5.77;2.87;;;;;;;15.60;100.00;149997.47;4995256;28;20249;-59
2023/08/27 03:45:20;;;;;;;5.50;3.33;;;;;;;15.56;100.00;149986.25;5016710;28;20231;-59
2023/08/27 03:47:46;;;;;;;10.50;3.30;;;;;;;15.57;100.00;149988.75;4993126;28;20246;-59
2023/08/27 03:50:13;;;;;;;7.83;3.20;;;;;;;15.53;100.00;149978.75;5000534;28;20313;-59
2023/08/27 03:52:40;;;;;;;9.37;3.10;;;;;;;15.53;100.00;149979.97;4995269;28;20261;-59
2023/08/27 03:55:08;;;;;;;7.97;2.80;;;;;;;15.54;100.00;149982.47;5002620;28;21185;-59
2023/08/27 03:57:35;;;;;;;8.97;3.00;;;;;;;15.53;100.00;149978.75;4999279;28;20231;-59
2023/08/27 04:00:03;;;;;;;7.77;3.23;;;;;;;15.50;100.00;149973.75;5012508;28;20231;-58
2023/08/27 04:02:29;;;;;;;7.43;3.40;;;;;;;15.44;100.00;149958.75;4993606;28;20328;-59
2023/08/27 04:04:57;;;;;;;3.80;2.80;;;;;;;15.42;100.00;149953.75;5011114;28;20321;-56
2023/08/27 04:07:23;;;;;;;6.53;3.10;;;;;;;15.39;100.00;149946.25;4992869;28;20238;-60
2023/08/27 04:09:50;;;;;;;8.27;3.50;;;;;;;15.40;100.00;149948.75;5010818;28;20752;-60
2023/08/27 04:12:18;;;;;;;6.10;2.60;;;;;;;15.36;100.00;149938.78;4992522;28;20244;-59
2023/08/27 04:14:45;;;;;;;6.67;2.70;;;;;;;15.28;100.00;149918.78;4992481;28;20686;-59
2023/08/27 04:17:12;;;;;;;9.60;2.83;;;;;;;15.27;100.00;149916.28;4994258;28;20227;-60
2023/08/27 04:19:39;;;;;;;5.93;2.43;;;;;;;15.25;100.00;149912.56;5000231;28;20242;-59
2023/08/27 04:22:05;;;;;;;7.93;3.30;;;;;;;15.18;100.00;149895.06;4995589;28;20245;-59
2023/08/27 04:24:32;;;;;;;4.37;2.60;;;;;;;15.17;100.00;149892.56;4991362;28;20227;-59
2023/08/27 04:26:59;;;;;;;4.47;3.03;;;;;;;15.16;100.00;149891.28;4996757;28;20240;-57
2023/08/27 04:29:26;;;;;;;8.97;4.10;;;;;;;15.16;100.00;149891.28;5000068;28;20234;-59
2023/08/27 04:31:53;;;;;;;5.30;3.50;;;;;;;15.17;100.00;149892.56;5014067;28;20224;-59
2023/08/27 04:34:20;;;;;;;8.47;3.00;;;;;;;15.18;100.00;149895.06;4973720;28;20239;-59
2023/08/27 04:36:47;;;;;;;4.80;2.97;;;;;;;15.19;100.00;149898.78;4994232;28;20261;-58
2023/08/27 04:39:14;;;;;;;9.23;3.03;;;;;;;15.15;100.00;149888.78;5012355;28;20228;-58
2023/08/27 04:41:40;;;;;;;6.70;3.00;;;;;;;15.16;100.00;149891.28;5010446;28;20246;-58
2023/08/27 04:44:07;;;;;;;8.33;3.20;;;;;;;15.15;100.00;149887.56;4997248;28;20223;-57
2023/08/27 04:46:49;;;;;;;4.97;3.03;;;;;;;15.16;100.00;149891.28;4983871;28;20230;-60
2023/08/27 04:49:16;;;;;;;8.83;3.77;;;;;;;15.14;100.00;149885.06;4994902;28;20725;-58
2023/08/27 04:51:42;;;;;;;7.00;2.80;;;;;;;15.11;100.00;149878.81;4993286;28;20235;-59
2023/08/27 04:54:09;;;;;;;5.20;2.97;;;;;;;15.09;100.00;149872.59;4994470;28;20598;-59
2023/08/27 04:56:35;;;;;;;10.07;4.13;;;;;;;15.06;100.00;149866.31;4992681;28;20220;-59
2023/08/27 04:59:02;;;;;;;9.17;3.10;;;;;;;15.05;100.00;149863.81;5002219;28;20237;-58
2023/08/27 05:01:31;;;;;;;6.43;3.10;;;;;;;15.05;100.00;149865.09;4998678;28;20267;-59
2023/08/27 05:03:59;;;;;;;9.37;3.00;;;;;;;15.09;100.00;149872.59;5001504;28;20224;-59
2023/08/27 05:06:31;;;;;;;6.17;3.00;;;;;;;15.10;100.00;149876.31;5000729;28;20287;-57
2023/08/27 05:08:58;;;;;;;5.47;2.83;;;;;;;15.13;100.00;149883.81;5001456;28;20239;-59
2023/08/27 05:11:24;;;;;;;11.17;3.27;;;;;;;15.16;100.00;149891.28;4997113;28;20252;-59
2023/08/27 05:13:51;;;;;;;4.73;2.70;;;;;;;15.23;100.00;149907.56;5014182;28;20238;-59
2023/08/27 05:16:19;;;;;;;6.27;2.73;;;;;;;15.26;100.00;149913.78;5002459;28;20228;-59
2023/08/27 05:18:46;;;;;;;7.03;3.33;;;;;;;15.28;100.00;149918.78;4997021;28;20261;-59
2023/08/27 05:21:14;;;;;;;8.83;3.20;;;;;;;15.33;100.00;149932.53;4999129;28;20702;-60
2023/08/27 05:23:42;;;;;;;5.97;3.20;;;;;;;15.37;100.00;149940.03;5002339;28;20250;-60
2023/08/27 05:26:08;;;;;;;5.73;2.70;;;;;;;15.43;100.00;149954.97;4997382;28;20233;-60
2023/08/27 05:28:35;;;;;;;6.10;2.90;;;;;;;15.45;100.00;149961.25;4995166;28;20232;-60
2023/08/27 05:31:03;;;;;;;6.20;2.50;;;;;;;15.52;100.00;149977.47;4998199;28;20716;-60
2023/08/27 05:33:30;;;;;;;7.93;3.30;;;;;;;15.58;100.00;149991.25;4995993;28;20226;-59
2023/08/27 05:35:57;;;;;;;3.40;2.30;;;;;;;15.65;100.00;150008.75;5005444;28;20236;-60
2023/08/27 05:38:26;;;;;;;10.07;3.63;;;;;;;15.77;100.00;150037.47;5002880;28;20228;-59
2023/08/27 05:40:53;;;;;;;5.57;2.80;;;;;;;15.80;100.00;150044.97;5004687;28;20230;-59
2023/08/27 05:43:20;;;;;;;7.87;2.80;;;;;;;15.74;100.00;150031.22;4993828;28;20241;-60
2023/08/27 05:45:47;;;;;;;5.83;3.03;;;;;;;15.86;100.00;150059.94;5015257;28;20263;-60
2023/08/27 05:48:16;;;;;;;6.47;2.43;;;;;;;15.96;100.00;150083.72;5004334;28;20239;-59
2023/08/27 05:50:44;;;;;;;3.57;2.60;;;;;;;16.05;100.00;150105.00;4989801;28;20319;-59
2023/08/27 05:53:12;;;;;;;7.70;2.50;;;;;;;16.06;100.00;150108.72;5004359;28;20621;-59
2023/08/27 05:55:40;;;;;;;3.90;2.33;;;;;;;16.13;100.00;150123.72;5000527;28;20598;-58
2023/08/27 05:58:07;;;;;;;4.93;2.50;;;;;;;16.16;100.00;150132.50;4995818;28;20316;-59
2023/08/27 06:00:34;;;;;;;3.87;2.17;;;;;;;16.19;100.00;150140.00;5005795;28;20226;-59
2023/08/27 06:03:03;;;;;;;7.27;2.63;;;;;;;16.23;100.00;150148.72;5003659;28;20238;-59
2023/08/27 06:05:30;;;;;;;7.37;2.27;;;;;;;16.27;100.00;150158.72;5002004;28;20281;-59
2023/08/27 06:07:58;;;;;;;7.30;3.27;;;;;;;16.27;100.00;150157.50;5001871;28;21161;-57
2023/08/27 06:10:25;;;;;;;6.03;2.80;;;;;;;16.30;100.00;150165.00;4999663;28;20242;-59
2023/08/27 06:12:54;;;;;;;5.17;2.70;;;;;;;16.34;100.00;150175.00;4996516;28;20241;-60
2023/08/27 06:15:21;;;;;;;5.27;2.43;;;;;;;16.37;100.00;150183.72;5001902;28;20331;-60
2023/08/27 06:17:47;;;;;;;2.80;2.30;;;;;;;16.38;100.00;150186.22;5005239;28;20229;-60
2023/08/27 06:20:14;;;;;;;6.53;2.30;;;;;;;16.47;100.00;150207.44;5013659;28;20256;-60
2023/08/27 06:22:41;;;;;;;7.27;2.53;;;;;;;16.56;100.00;150228.72;4996994;28;20238;-60
2023/08/27 06:25:08;;;;;;;6.30;2.77;;;;;;;16.55;100.00;150224.94;4995863;28;20717;-60
2023/08/27 06:27:34;;;;;;;5.47;2.57;;;;;;;16.60;100.00;150238.72;4995607;28;20225;-60
2023/08/27 06:30:03;;;;;;;5.00;2.50;;;;;;;16.62;100.00;150242.44;4996296;28;20261;-59
2023/08/27 06:32:30;;;;;;;6.67;2.40;;;;;;;16.67;100.00;150256.22;4996251;28;20222;-59
2023/08/27 06:34:57;;;;;;;7.07;2.30;;;;;;;16.73;100.00;150269.97;4997879;28;20655;-59
2023/08/27 06:37:24;;;;;;;5.83;2.40;;;;;;;16.78;100.00;150281.25;4991802;28;20326;-59
2023/08/27 06:39:51;;;;;;;3.47;2.43;;;;;;;16.81;100.00;150288.75;4995990;28;20288;-60
2023/08/27 06:42:18;;;;;;;6.27;2.20;;;;;;;16.87;100.00;150303.75;4994035;28;20245;-59
2023/08/27 06:44:48;;;;;;;6.27;2.40;;;;;;;16.92;100.00;150316.25;4997813;28;20796;-59
2023/08/27 06:47:16;;;;;;;6.53;2.27;;;;;;;17.00;100.00;150335.03;5003591;28;20626;-59
2023/08/27 06:49:43;;;;;;;4.07;2.03;;;;;;;17.09;100.00;150357.53;4992791;28;20234;-59
2023/08/27 06:52:10;;;;;;;4.93;2.30;;;;;;;17.14;100.00;150367.56;4997860;28;20243;-56
2023/08/27 06:54:37;;;;;;;8.17;2.50;;;;;;;17.22;100.00;150388.78;5000675;28;20577;-57
2023/08/27 06:57:04;;;;;;;4.97;2.43;;;;;;;17.26;100.00;150398.78;5002650;28;20246;-58
2023/08/27 06:59:30;;;;;;;8.27;2.40;;;;;;;17.46;100.00;150445.09;4994279;28;20231;-58
2023/08/27 07:01:57;;;;;;;8.57;2.50;;;;;;;17.56;100.00;150470.06;5010734;28;20243;-57
2023/08/27 07:04:25;;;;;;;3.43;2.30;;;;;;;17.74;100.00;150512.59;5014581;28;20232;-58
2023/08/27 07:06:52;;;;;;;6.73;2.47;;;;;;;17.85;100.00;150540.13;5002897;28;20221;-58
2023/08/27 07:09:19;;;;;;;5.07;2.20;;;;;;;17.81;100.00;150531.41;4994730;28;20259;-58
2023/08/27 07:11:45;;;;;;;5.33;2.13;;;;;;;17.84;100.00;150538.91;4997010;28;20730;-59
2023/08/27 07:14:12;;;;;;;3.60;1.60;;;;;;;18.04;100.00;150585.22;5003219;28;20220;-58
2023/08/27 07:16:38;;;;;;;5.10;1.70;;;;;;;18.12;100.00;150605.25;4992424;28;20239;-58
2023/08/27 07:19:05;;;;;;;6.63;1.80;;;;;;;18.36;97.09;150664.03;5002137;28;20233;-58
2023/08/27 07:21:33;;;;;;;3.37;1.63;;;;;;;18.45;96.79;150685.34;5017464;28;20743;-58
2023/08/27 07:24:06;;;;;;;6.77;1.67;;;;;;;18.57;98.52;150715.34;4995021;28;20666;-59
2023/08/27 07:26:32;;;;;;;3.53;1.60;;;;;;;18.64;98.12;150731.63;4990402;28;20242;-59
2023/08/27 07:28:59;;;;;;;4.90;1.50;;;;;;;18.79;96.63;150766.69;4994759;28;20688;-58
2023/08/27 07:31:32;;;;;;;3.17;1.70;;;;;;;18.96;94.96;150809.31;5015557;28;20373;-58
2023/08/27 07:33:59;;;;;;;2.80;1.33;;;;;;;19.13;92.51;150850.59;4994486;28;20304;-58
2023/08/27 07:36:28;;;;;;;2.13;1.50;;;;;;;19.16;93.66;150856.84;4990709;28;20232;-58
2023/08/27 07:38:57;;;;;;;5.43;1.43;;;;;;;19.19;92.21;150864.34;4995390;28;20228;-59
2023/08/27 07:41:24;;;;;;;2.87;2.07;;;;;;;19.22;93.99;150871.88;5001116;28;20293;-59
2023/08/27 07:43:51;;;;;;;3.40;2.13;;;;;;;19.21;93.64;150869.34;5003341;28;20232;-59
2023/08/27 07:46:18;;;;;;;5.53;1.93;;;;;;;19.03;96.21;150825.56;4990414;28;20239;-59
2023/08/27 07:48:44;;;;;;;3.53;2.13;;;;;;;19.15;96.17;150854.34;5019814;28;20253;-58
2023/08/27 07:51:11;;;;;;;4.70;2.20;;;;;;;19.03;96.48;150825.56;4989366;28;20253;-58
2023/08/27 07:53:38;;;;;;;6.33;2.30;;;;;;;19.16;94.92;150856.84;5007747;28;20271;-59
2023/08/27 07:56:07;;;;;;;4.00;1.80;;;;;;;19.07;96.14;150835.56;4995943;28;20282;-58
2023/08/27 07:58:33;;;;;;;3.70;1.83;;;;;;;18.85;98.14;150781.72;4998785;28;20266;-58
2023/08/27 08:01:02;;;;;;;3.43;1.77;;;;;;;18.88;98.67;150789.22;4991740;28;20231;-58
2023/08/27 08:03:29;;;;;;;5.63;2.07;;;;;;;19.01;98.80;150821.81;5008669;28;20711;-58
2023/08/27 08:05:55;;;;;;;4.40;2.23;;;;;;;18.93;97.19;150801.75;4997690;28;20712;-58
2023/08/27 08:08:23;;;;;;;3.30;1.97;;;;;;;18.92;97.41;150799.25;4994113;28;20225;-59
2023/08/27 08:10:50;;;;;;;4.77;2.07;;;;;;;18.99;96.61;150815.53;4998036;28;20697;-57
2023/08/27 08:13:17;;;;;;;7.10;2.20;;;;;;;19.06;97.43;150831.84;4999467;28;20236;-58
2023/08/27 08:15:47;;;;;;;5.37;2.30;;;;;;;19.10;97.77;150841.81;4991889;28;20233;-58
2023/08/27 08:18:14;;;;;;;3.17;2.00;;;;;;;19.43;96.41;150921.94;4997920;28;20220;-58
2023/08/27 08:20:41;;;;;;;6.80;2.00;;;;;;;19.54;94.21;150949.50;4995301;28;20236;-58
2023/08/27 08:23:07;;;;;;;4.27;2.20;;;;;;;19.69;94.37;150984.56;4995507;28;20249;-58
2023/08/27 08:25:37;;;;;;;4.60;1.70;;;;;;;19.94;94.63;151045.97;4999597;28;20249;-58
2023/08/27 08:28:04;;;;;;;5.83;1.87;;;;;;;19.75;92.35;150999.59;4996242;28;20342;-58
2023/08/27 08:30:32;;;;;;;3.47;1.90;;;;;;;19.71;89.66;150990.81;4991294;28;20328;-57
2023/08/27 08:32:58;;;;;;;4.33;1.90;;;;;;;20.11;91.67;151087.34;4997143;28;20256;-58
2023/08/27 08:35:25;;;;;;;4.27;1.70;;;;;;;20.27;88.15;151126.16;4995819;28;20226;-58
2023/08/27 08:37:51;;;;;;;4.10;1.27;;;;;;;20.54;84.35;151190.03;4997869;28;20226;-58
2023/08/27 08:40:18;;;;;;;2.27;1.40;;;;;;;20.77;84.00;151247.72;4994467;28;20627;-58
2023/08/27 08:42:52;;;;;;;4.60;1.20;;;;;;;20.89;82.42;151276.53;4997780;28;20599;-57
2023/08/27 08:45:25;;;;;;;2.77;1.37;;;;;;;21.05;80.57;151314.13;4991143;28;20671;-58
2023/08/27 08:47:54;;;;;;;2.77;1.43;;;;;;;20.88;83.06;151272.78;4996250;28;20244;-58
2023/08/27 08:50:22;;;;;;;4.87;1.40;;;;;;;21.13;80.74;151332.97;4993957;28;20688;-58
2023/08/27 08:52:50;;;;;;;2.37;1.50;;;;;;;21.08;80.19;151321.66;4995791;28;20706;-58
2023/08/27 08:55:22;;;;;;;3.13;1.10;;;;;;;20.93;79.88;151285.34;4995296;28;20230;-58
2023/08/27 08:57:54;;;;;;;3.73;1.57;;;;;;;20.88;79.45;151272.78;4996007;28;20234;-58
2023/08/27 09:00:22;;;;;;;3.07;1.60;;;;;;;20.91;80.14;151281.56;4994765;28;20236;-58
2023/08/27 09:02:49;;;;;;;3.30;1.40;;;;;;;20.69;82.30;151227.63;4994614;28;20234;-58
2023/08/27 09:05:19;;;;;;;6.07;1.27;;;;;;;20.62;82.75;151211.38;4996719;28;20746;-57
2023/08/27 09:07:48;;;;;;;2.70;1.10;;;;;;;20.86;83.69;151269.03;4995602;28;20247;-58
2023/08/27 09:10:15;;;;;;;2.60;1.50;;;;;;;20.96;82.40;151292.84;4998273;28;20245;-59
2023/08/27 09:12:42;;;;;;;3.70;1.70;;;;;;;20.61;82.82;151208.84;4994406;28;20238;-59
2023/08/27 09:15:10;;;;;;;2.80;1.53;;;;;;;20.68;83.18;151223.84;4996861;28;20226;-58
2023/08/27 09:17:39;;;;;;;3.37;1.50;;;;;;;20.78;81.26;151250.25;4995148;28;20261;-58
2023/08/27 09:20:07;;;;;;;3.77;1.50;;;;;;;20.76;84.37;151243.91;4996986;28;20312;-58
2023/08/27 09:22:35;;;;;;;4.33;1.60;;;;;;;20.20;85.65;151108.63;4994794;28;20337;-58
2023/08/27 09:25:02;;;;;;;3.30;1.50;;;;;;;20.41;83.06;151158.72;4996227;28;20597;-58
2023/08/27 09:27:29;;;;;;;6.33;1.50;;;;;;;20.75;80.97;151242.69;4993225;28;20229;-58
2023/08/27 09:30:00;;;;;;;2.90;1.20;;;;;;;20.89;81.25;151275.31;4997819;28;20326;-58
2023/08/27 09:32:27;;;;;;;5.40;1.60;;;;;;;20.82;82.51;151257.75;4992814;28;20229;-58
2023/08/27 09:34:58;;;;;;;3.50;1.47;;;;;;;20.74;80.83;151240.16;4997458;28;20219;-58
2023/08/27 09:37:27;;;;;;;2.50;1.43;;;;;;;20.89;80.02;151275.31;4993072;28;20258;-58
2023/08/27 09:39:55;;;;;;;3.00;1.57;;;;;;;20.90;80.27;151277.81;4995551;28;20233;-58
2023/08/27 09:42:22;;;;;;;3.13;1.33;;;;;;;21.66;75.37;151463.34;4991470;28;20578;-58
2023/08/27 09:44:50;;;;;;;1.80;1.57;;;;;;;21.85;75.07;151508.50;4996195;28;20235;-58
2023/08/27 09:47:16;;;;;;;2.80;1.50;;;;;;;21.78;73.06;151490.94;4995363;28;20237;-58
2023/08/27 09:49:43;;;;;;;3.67;1.70;;;;;;;21.76;75.38;151485.91;4994246;28;20237;-59
2023/08/27 09:52:10;;;;;;;3.00;1.33;;;;;;;21.77;75.88;151488.44;4999457;28;20707;-58
2023/08/27 09:54:37;;;;;;;2.63;1.30;;;;;;;21.78;74.58;151492.16;4997621;28;20211;-58
2023/08/27 09:57:17;;;;;;;4.03;1.67;;;;;;;22.04;74.61;151553.63;4999675;28;20252;-58
2023/08/27 09:59:44;;;;;;;3.00;1.47;;;;;;;21.53;76.90;151430.69;4996792;28;20228;-59
2023/08/27 10:02:12;;;;;;;4.10;1.40;;;;;;;21.79;77.01;151494.69;4998717;28;20296;-59
2023/08/27 10:04:48;;;;;;;2.43;1.50;;;;;;;22.23;73.18;151600.03;4996744;28;20619;-59
2023/08/27 10:07:15;;;;;;;2.77;1.50;;;;;;;21.04;78.98;151311.63;5001408;28;20239;-59
2023/08/27 10:09:42;;;;;;;3.47;1.70;;;;;;;21.45;77.78;151410.63;5000031;28;20599;-58
2023/08/27 10:12:12;;;;;;;2.73;1.60;;;;;;;21.71;75.32;151473.38;5000255;28;20241;-57
2023/08/27 10:14:40;;;;;;;2.93;1.70;;;;;;;22.29;71.79;151613.78;4997988;28;20242;-57
2023/08/27 10:17:07;;;;;;;3.43;1.60;;;;;;;22.07;73.66;151562.41;5000225;28;20870;-58
2023/08/27 10:19:35;;;;;;;2.97;1.50;;;;;;;21.78;75.54;151490.94;4997466;28;20243;-58
2023/08/27 10:22:03;;;;;;;5.10;1.83;;;;;;;22.20;73.46;151592.50;4996632;28;20243;-58
2023/08/27 10:24:30;;;;;;;3.30;1.60;;;;;;;21.97;74.38;151537.31;4996049;28;20258;-58
2023/08/27 10:26:58;;;;;;;3.80;1.70;;;;;;;22.78;71.78;151734.28;4998274;28;20236;-58
2023/08/27 10:29:27;;;;;;;6.10;1.57;;;;;;;22.66;71.88;151705.44;4996842;28;20236;-58
2023/08/27 10:31:53;;;;;;;3.87;1.50;;;;;;;22.77;71.28;151731.78;4997899;28;20238;-58
2023/08/27 10:34:23;;;;;;;3.33;1.60;;;;;;;23.07;70.18;151803.25;4995279;28;20221;-58
2023/08/27 10:36:52;;;;;;;5.57;1.97;;;;;;;23.15;69.10;151823.34;4997751;28;20248;-59
2023/08/27 10:39:24;;;;;;;3.93;1.60;;;;;;;22.05;73.88;151556.16;4995519;28;20228;-59
2023/08/27 10:41:50;;;;;;;5.40;1.93;;;;;;;22.94;71.33;151771.91;4999765;28;20311;-58
2023/08/27 10:44:19;;;;;;;2.90;1.60;;;;;;;23.19;70.20;151832.16;4998413;28;20240;-58
2023/08/27 10:47:09;;;;;;;4.87;1.77;;;;;;;23.22;67.47;151839.69;4995684;28;20242;-58
2023/08/27 10:49:37;;;;;;;4.23;1.67;;;;;;;22.93;69.01;151769.41;4995031;28;20220;-58
2023/08/27 10:52:14;;;;;;;3.20;1.60;;;;;;;22.77;69.56;151731.78;4996973;28;20250;-58
2023/08/27 10:54:41;;;;;;;3.10;1.60;;;;;;;22.97;67.42;151779.44;4996594;28;20232;-58
2023/08/27 10:57:18;;;;;;;4.77;1.60;;;;;;;23.31;66.57;151862.31;4998499;28;20237;-58
2023/08/27 10:59:45;;;;;;;2.70;1.60;;;;;;;23.62;65.24;151936.34;4991573;28;21073;-59
2023/08/27 11:02:14;;;;;;;3.17;1.47;;;;;;;23.59;64.88;151930.03;4997406;28;20738;-59
2023/08/27 11:04:42;;;;;;;3.50;1.60;;;;;;;23.62;64.17;151937.56;4995676;28;20690;-60
2023/08/27 11:07:11;;;;;;;5.00;1.80;;;;;;;23.58;64.59;151927.53;5012150;28;20633;-60
2023/08/27 11:09:46;;;;;;;3.10;1.47;;;;;;;23.24;65.44;151845.97;4994320;28;20294;-59
2023/08/27 11:12:24;;;;;;;1.73;1.53;;;;;;;23.44;65.77;151894.91;4997015;28;20719;-59
2023/08/27 11:14:51;;;;;;;4.07;1.73;;;;;;;23.67;65.02;151948.88;4994912;28;20236;-59
2023/08/27 11:17:27;;;;;;;3.10;1.80;;;;;;;22.57;66.61;151682.84;4996117;28;20230;-60
2023/08/27 11:19:54;;;;;;;2.80;1.93;;;;;;;23.18;65.67;151830.88;4999913;28;20228;-60
2023/08/27 11:22:23;;;;;;;4.63;1.70;;;;;;;23.68;65.72;151952.63;4994165;28;20233;-60
2023/08/27 11:24:52;;;;;;;1.87;1.70;;;;;;;23.57;64.78;151925.03;4998161;28;20230;-59